Time;durP1;ratioP1;P1;durP2;ratioP2;P2;SDS_P1;SDS_P2;PMS_P1;PMS_P2;Temp;Humidity;BMP_temperature;BMP_pressure;BME280_temperature;BME280_humidity;BME280_pressure;Samples;Min_cycle;Max_cycle;Signal;HPM_P1;HPM_P2
2021/01/08 00:01:20;;;;;;;;;;;;;;;21.69;28.82;101436.84;3094015;28;114658;-60
2021/01/08 00:02:52;;;;;;;;;;;;;;;21.66;28.56;101431.84;3088385;28;114170;-61
2021/01/08 00:04:23;;;;;;;;;;;;;;;21.49;27.44;101434.31;3089486;28;113889;-60
2021/01/08 00:05:55;;;;;;;;;;;;;;;21.30;28.19;101422.25;3093222;28;114573;-60
2021/01/08 00:07:26;;;;;;;;;;;;;;;21.66;27.92;101431.00;3091255;28;114538;-59
2021/01/08 00:08:57;;;;;;;;;;;;;;;21.80;27.48;101419.81;3090758;28;114435;-59
2021/01/08 00:10:29;;;;;;;;;;;;;;;21.87;27.29;101426.72;3093474;28;114907;-59
2021/01/08 00:12:00;;;;;;;;;;;;;;;21.88;27.90;101417.16;3091340;28;114686;-64
2021/01/08 00:13:31;;;;;;;;;;;;;;;21.89;28.05;101424.47;3101210;28;114229;-59
2021/01/08 00:15:03;;;;;;;;;;;;;;;21.92;28.39;101429.47;3090551;28;114322;-62
2021/01/08 00:16:35;;;;;;;;;;;;;;;21.95;28.28;101425.22;3086946;28;115328;-61
2021/01/08 00:18:06;;;;;;;;;;;;;;;21.90;28.71;101419.63;3090737;28;113960;-60
2021/01/08 00:19:39;;;;;;;;;;;;;;;21.94;29.02;101424.38;3092657;28;114038;-59
2021/01/08 00:21:10;;;;;;;;;;;;;;;21.92;28.48;101417.38;3095507;28;114474;-59
2021/01/08 00:22:41;;;;;;;;;;;;;;;21.93;28.70;101421.91;3095840;28;114460;-59
2021/01/08 00:24:13;;;;;;;;;;;;;;;21.91;29.18;101422.16;3087240;28;114562;-60
2021/01/08 00:25:49;;;;;;;;;;;;;;;21.92;29.08;101425.81;3088811;28;114418;-60
2021/01/08 00:27:21;;;;;;;;;;;;;;;21.88;29.23;101416.31;3090823;28;115446;-59
2021/01/08 00:28:52;;;;;;;;;;;;;;;21.89;29.07;101410.41;3104671;27;115580;-59
2021/01/08 00:30:24;;;;;;;;;;;;;;;21.89;29.71;101404.75;3093149;28;114396;-58
2021/01/08 00:31:55;;;;;;;;;;;;;;;21.92;29.37;101409.78;3093722;28;116769;-59
2021/01/08 00:33:27;;;;;;;;;;;;;;;21.92;29.73;101408.94;3091270;28;115461;-58
2021/01/08 00:34:58;;;;;;;;;;;;;;;21.92;29.99;101403.31;3090557;28;114385;-57
2021/01/08 00:36:29;;;;;;;;;;;;;;;21.91;30.10;101410.06;3086371;28;116567;-59
2021/01/08 00:38:00;;;;;;;;;;;;;;;21.91;29.92;101410.91;3090594;28;115475;-60
2021/01/08 00:39:32;;;;;;;;;;;;;;;21.92;30.10;101408.94;3092975;28;115073;-60
2021/01/08 00:41:03;;;;;;;;;;;;;;;21.90;30.27;101414.00;3088911;28;114834;-61
2021/01/08 00:42:35;;;;;;;;;;;;;;;21.88;30.04;101405.91;3092077;28;115978;-60
2021/01/08 00:44:06;;;;;;;;;;;;;;;21.88;30.39;101405.06;3098685;28;115777;-58
2021/01/08 00:45:37;;;;;;;;;;;;;;;21.88;30.15;101403.09;3090718;28;116141;-59
2021/01/08 00:47:08;;;;;;;;;;;;;;;21.89;30.11;101399.13;3088583;28;115698;-60
2021/01/08 00:48:40;;;;;;;;;;;;;;;21.87;30.04;101409.84;3093356;28;114992;-60
2021/01/08 00:50:12;;;;;;;;;;;;;;;21.83;29.98;101407.94;3095871;28;114396;-65
2021/01/08 00:51:44;;;;;;;;;;;;;;;21.83;30.19;101405.13;3086626;28;117094;-62
2021/01/08 00:53:15;;;;;;;;;;;;;;;21.80;30.09;101400.97;3089310;28;114851;-60
2021/01/08 00:54:48;;;;;;;;;;;;;;;21.77;30.04;101404.38;3087850;28;118477;-61
2021/01/08 00:56:20;;;;;;;;;;;;;;;21.74;30.08;101400.22;3091808;28;115802;-59
2021/01/08 00:57:51;;;;;;;;;;;;;;;21.73;30.08;101404.16;3094420;28;114331;-60
2021/01/08 00:59:22;;;;;;;;;;;;;;;21.72;30.20;101401.66;3088864;28;114119;-60
2021/01/08 01:00:53;;;;;;;;;;;;;;;21.72;30.33;101402.47;3094309;28;114250;-60
2021/01/08 01:02:24;;;;;;;;;;;;;;;21.73;30.36;101400.50;3098668;28;116008;-59
2021/01/08 01:03:56;;;;;;;;;;;;;;;21.73;30.42;101398.53;3093414;28;113879;-60
2021/01/08 01:05:27;;;;;;;;;;;;;;;21.73;30.57;101397.69;3086493;28;114872;-60
2021/01/08 01:06:58;;;;;;;;;;;;;;;21.75;30.46;101392.63;3091239;28;114721;-61
2021/01/08 01:08:30;;;;;;;;;;;;;;;21.74;30.58;101399.38;3091555;28;114417;-61
2021/01/08 01:10:01;;;;;;;;;;;;;;;21.76;30.32;101390.66;3094265;28;114162;-61
2021/01/08 01:11:32;;;;;;;;;;;;;;;21.74;30.32;101394.59;3092017;28;114445;-60
2021/01/08 01:13:03;;;;;;;;;;;;;;;21.74;30.61;101393.75;3092303;28;114101;-64
2021/01/08 01:14:34;;;;;;;;;;;;;;;21.74;30.77;101394.59;3087412;28;114262;-60
2021/01/08 01:16:06;;;;;;;;;;;;;;;21.73;30.68;101390.09;3090395;28;114649;-59
2021/01/08 01:17:43;;;;;;;;;;;;;;;21.72;30.74;101394.03;3093294;28;113941;-60
2021/01/08 01:19:14;;;;;;;;;;;;;;;21.71;30.80;101394.38;3092845;28;115548;-62
2021/01/08 01:20:45;;;;;;;;;;;;;;;21.71;30.89;101394.38;3093607;28;115337;-61
2021/01/08 01:22:17;;;;;;;;;;;;;;;21.69;30.95;101393.81;3089447;28;115053;-60
2021/01/08 01:23:49;;;;;;;;;;;;;;;21.68;30.96;101397.78;3088321;28;114562;-61
2021/01/08 01:25:20;;;;;;;;;;;;;;;21.66;30.90;101398.09;3088950;28;114049;-60
2021/01/08 01:26:56;;;;;;;;;;;;;;;21.65;30.88;101395.59;3086426;28;115212;-60
2021/01/08 01:28:27;;;;;;;;;;;;;;;21.64;31.29;101397.56;3089412;28;115254;-57
2021/01/08 01:29:58;;;;;;;;;;;;;;;21.64;31.12;101393.91;3085870;28;114319;-60
2021/01/08 01:31:29;;;;;;;;;;;;;;;21.60;31.40;101388.06;3093831;28;115079;-60
2021/01/08 01:33:02;;;;;;;;;;;;;;;21.61;31.21;101400.16;3086419;28;115086;-60
2021/01/08 01:34:33;;;;;;;;;;;;;;;21.59;31.74;101397.63;3092338;28;114021;-66
2021/01/08 01:36:06;;;;;;;;;;;;;;;21.58;31.11;101393.16;3088067;28;114319;-61
2021/01/08 01:37:37;;;;;;;;;;;;;;;21.57;31.38;101385.03;3086715;28;114313;-63
2021/01/08 01:39:09;;;;;;;;;;;;;;;21.55;31.21;101393.75;3088940;28;115213;-61
2021/01/08 01:40:40;;;;;;;;;;;;;;;21.55;31.33;101395.72;3092088;28;115505;-60
2021/01/08 01:42:11;;;;;;;;;;;;;;;21.53;31.21;101396.03;3091059;28;115792;-60
2021/01/08 01:43:42;;;;;;;;;;;;;;;21.52;31.47;101396.34;3097947;28;116045;-60
2021/01/08 01:45:14;;;;;;;;;;;;;;;21.50;31.18;101396.66;3098110;28;114741;-60
2021/01/08 01:46:45;;;;;;;;;;;;;;;21.49;31.43;101394.97;3086728;28;115390;-60
2021/01/08 01:48:18;;;;;;;;;;;;;;;21.48;31.35;101403.72;3086939;28;114626;-60
2021/01/08 01:49:49;;;;;;;;;;;;;;;21.47;31.58;101397.25;3092410;28;115953;-60
2021/01/08 01:51:20;;;;;;;;;;;;;;;21.44;31.44;101395.03;3089919;28;115895;-61
2021/01/08 01:52:52;;;;;;;;;;;;;;;21.44;31.66;101397.84;3092000;28;114656;-61
2021/01/08 01:54:24;;;;;;;;;;;;;;;21.42;31.38;101404.94;3092854;28;114786;-60
2021/01/08 01:55:55;;;;;;;;;;;;;;;21.40;31.48;101401.56;3091128;28;114832;-61
2021/01/08 01:57:26;;;;;;;;;;;;;;;21.37;31.68;101403.03;3089999;28;115155;-61
2021/01/08 01:58:58;;;;;;;;;;;;;;;21.36;31.58;101401.34;3085716;28;114796;-61
2021/01/08 02:00:29;;;;;;;;;;;;;;;21.35;31.90;101402.47;3092392;28;115838;-61
2021/01/08 02:02:02;;;;;;;;;;;;;;;21.34;31.84;101402.81;3098236;28;115655;-61
2021/01/08 02:03:44;;;;;;;;;;;;;;;21.30;31.89;101400.59;3093113;28;114078;-61
2021/01/08 02:05:17;;;;;;;;;;;;;;;21.30;31.95;101406.19;3095256;28;114123;-62
2021/01/08 02:06:50;;;;;;;;;;;;;;;21.28;31.86;101400.06;3091381;28;114624;-61
2021/01/08 02:08:23;;;;;;;;;;;;;;;21.28;31.88;101404.84;3085520;28;113866;-62
2021/01/08 02:09:54;;;;;;;;;;;;;;;21.24;32.10;101400.97;3088780;28;114243;-61
2021/01/08 02:11:27;;;;;;;;;;;;;;;21.22;32.08;101401.25;3086225;28;114258;-61
2021/01/08 02:12:59;;;;;;;;;;;;;;;21.20;32.27;101402.72;3096016;28;113810;-58
2021/01/08 02:14:31;;;;;;;;;;;;;;;21.20;32.21;101405.53;3093623;28;114208;-59
2021/01/08 02:16:02;;;;;;;;;;;;;;;21.19;32.21;101398.22;3087973;28;114182;-59
2021/01/08 02:17:34;;;;;;;;;;;;;;;21.18;32.53;101407.78;3087984;28;114058;-60
2021/01/08 02:19:08;;;;;;;;;;;;;;;21.14;32.41;101396.31;3086302;28;114306;-60
2021/01/08 02:20:40;;;;;;;;;;;;;;;21.14;32.46;101403.91;3093316;28;114802;-60
2021/01/08 02:22:11;;;;;;;;;;;;;;;21.10;32.37;101403.66;3093366;28;114324;-60
2021/01/08 02:23:49;;;;;;;;;;;;;;;21.09;32.39;101404.78;3100323;27;114409;-60
2021/01/08 02:25:26;;;;;;;;;;;;;;;21.08;32.87;101402.25;3091461;28;115534;-60
2021/01/08 02:26:57;;;;;;;;;;;;;;;21.06;32.58;101398.94;3093595;28;114482;-60
2021/01/08 02:28:29;;;;;;;;;;;;;;;21.02;32.81;101404.34;3097489;28;115294;-61
2021/01/08 02:30:00;;;;;;;;;;;;;;;21.00;33.12;101400.13;3098244;28;115689;-59
2021/01/08 02:31:35;;;;;;;;;;;;;;;21.00;33.15;101395.34;3093546;28;114399;-62
2021/01/08 02:33:08;;;;;;;;;;;;;;;20.97;32.98;101401.59;3098298;28;116919;-61
2021/01/08 02:34:39;;;;;;;;;;;;;;;20.95;33.08;101408.63;3088539;28;115339;-60
2021/01/08 02:36:11;;;;;;;;;;;;;;;20.91;33.21;101390.69;3088182;28;114276;-61
2021/01/08 02:37:43;;;;;;;;;;;;;;;20.91;33.18;101390.69;3087695;28;116518;-60
2021/01/08 02:39:15;;;;;;;;;;;;;;;20.88;33.27;101396.94;3089839;28;114364;-61
2021/01/08 02:40:47;;;;;;;;;;;;;;;20.85;33.15;101393.56;3087624;28;118284;-60
2021/01/08 02:42:18;;;;;;;;;;;;;;;20.84;32.97;101386.31;3087383;28;115148;-61
2021/01/08 02:43:51;;;;;;;;;;;;;;;20.80;33.29;101390.81;3098265;28;114084;-61
2021/01/08 02:45:22;;;;;;;;;;;;;;;20.78;33.22;101397.88;3090796;28;115872;-61
2021/01/08 02:46:53;;;;;;;;;;;;;;;20.76;33.32;101400.97;3093460;28;116665;-61
2021/01/08 02:48:24;;;;;;;;;;;;;;;20.74;33.39;101392.03;3093126;28;114816;-61
2021/01/08 02:49:56;;;;;;;;;;;;;;;20.72;33.44;101399.91;3102743;28;114788;-61
2021/01/08 02:51:27;;;;;;;;;;;;;;;20.70;33.41;101405.00;3094070;28;115901;-61
2021/01/08 02:53:02;;;;;;;;;;;;;;;20.68;33.41;101398.00;3098094;28;114369;-62
2021/01/08 02:54:34;;;;;;;;;;;;;;;20.65;33.74;101393.00;3092368;28;114987;-61
2021/01/08 02:56:08;;;;;;;;;;;;;;;20.64;33.48;101394.13;3095840;28;114814;-61
2021/01/08 02:57:41;;;;;;;;;;;;;;;20.58;33.54;101390.53;3086017;28;115628;-60
2021/01/08 02:59:13;;;;;;;;;;;;;;;20.56;33.84;101395.63;3093190;28;115956;-60
2021/01/08 03:00:45;;;;;;;;;;;;;;;20.53;34.01;101396.22;3085465;28;114668;-60
2021/01/08 03:02:16;;;;;;;;;;;;;;;20.51;34.25;101395.66;3086281;28;116010;-60
2021/01/08 03:03:48;;;;;;;;;;;;;;;20.50;33.84;101395.97;3085540;28;114586;-60
2021/01/08 03:05:19;;;;;;;;;;;;;;;20.45;34.15;101394.03;3097051;28;118046;-59
2021/01/08 03:06:51;;;;;;;;;;;;;;;20.48;34.08;101396.28;3105699;28;115767;-59
2021/01/08 03:08:22;;;;;;;;;;;;;;;20.43;34.25;101393.53;3093893;28;116692;-59
2021/01/08 03:09:53;;;;;;;;;;;;;;;20.40;34.18;101394.94;3098513;28;113754;-60
2021/01/08 03:11:25;;;;;;;;;;;;;;;20.41;34.54;101392.97;3096531;28;114680;-60
2021/01/08 03:13:00;;;;;;;;;;;;;;;20.40;34.43;101396.91;3099446;28;114527;-60
2021/01/08 03:14:31;;;;;;;;;;;;;;;20.39;34.52;101400.88;3109535;28;114065;-61
2021/01/08 03:16:03;;;;;;;;;;;;;;;20.36;34.25;101407.03;3092593;28;114088;-61
2021/01/08 03:17:34;;;;;;;;;;;;;;;20.35;34.75;101399.78;3098985;28;114388;-61
2021/01/08 03:19:09;;;;;;;;;;;;;;;20.33;34.39;101402.03;3110238;27;113928;-60
2021/01/08 03:20:41;;;;;;;;;;;;;;;20.30;34.58;101389.44;3097181;28;113938;-60
2021/01/08 03:22:12;;;;;;;;;;;;;;;20.27;34.99;101394.75;3102167;28;113940;-61
2021/01/08 03:23:43;;;;;;;;;;;;;;;20.24;34.72;101393.41;3100300;27;114392;-61
2021/01/08 03:25:15;;;;;;;;;;;;;;;20.22;34.79;101389.19;3088741;28;114052;-64
2021/01/08 03:26:46;;;;;;;;;;;;;;;20.20;35.02;101385.88;3092014;28;113907;-61
2021/01/08 03:28:18;;;;;;;;;;;;;;;20.22;35.20;101386.38;3094213;28;114384;-61
2021/01/08 03:29:49;;;;;;;;;;;;;;;20.19;34.92;101382.22;3091503;28;115390;-62
2021/01/08 03:31:20;;;;;;;;;;;;;;;20.17;35.07;101386.47;3085647;28;117216;-61
2021/01/08 03:32:52;;;;;;;;;;;;;;;20.15;35.12;101383.09;3089328;28;115003;-61
2021/01/08 03:34:23;;;;;;;;;;;;;;;20.12;35.38;101383.72;3097173;28;115197;-61
2021/01/08 03:35:54;;;;;;;;;;;;;;;20.13;35.31;101385.34;3096345;28;114539;-61
2021/01/08 03:37:26;;;;;;;;;;;;;;;20.10;35.19;101385.97;3089506;28;114237;-62
2021/01/08 03:38:59;;;;;;;;;;;;;;;20.09;35.23;101385.13;3085716;28;115200;-62
2021/01/08 03:40:30;;;;;;;;;;;;;;;20.09;35.20;101382.31;3089513;28;114744;-69
2021/01/08 03:42:01;;;;;;;;;;;;;;;20.04;35.68;101385.16;3097489;28;117001;-60
2021/01/08 03:43:32;;;;;;;;;;;;;;;20.02;35.68;101384.63;3099803;28;116997;-60
2021/01/08 03:45:04;;;;;;;;;;;;;;;20.01;35.38;101376.50;3095801;28;116552;-60
2021/01/08 03:46:38;;;;;;;;;;;;;;;20.01;35.31;101382.13;3085636;28;115216;-60
2021/01/08 03:48:10;;;;;;;;;;;;;;;19.98;35.83;101380.75;3089033;28;114343;-60
2021/01/08 03:49:41;;;;;;;;;;;;;;;19.98;35.88;101380.75;3085772;28;114503;-60
2021/01/08 03:51:12;;;;;;;;;;;;;;;19.95;35.91;101373.75;3099572;28;115620;-60
2021/01/08 03:52:43;;;;;;;;;;;;;;;19.94;35.79;101374.88;3097715;28;115869;-60
2021/01/08 03:54:14;;;;;;;;;;;;;;;19.91;35.83;101372.66;3091188;28;115876;-60
2021/01/08 03:55:46;;;;;;;;;;;;;;;19.90;35.86;101368.16;3090830;28;115892;-60
2021/01/08 03:57:17;;;;;;;;;;;;;;;19.88;35.90;101370.44;3093829;28;115221;-60
2021/01/08 03:58:49;;;;;;;;;;;;;;;19.87;36.23;101365.13;3088541;28;115875;-60
2021/01/08 04:00:20;;;;;;;;;;;;;;;19.86;35.89;101372.69;3095703;28;115160;-60
2021/01/08 04:01:51;;;;;;;;;;;;;;;19.84;35.95;101368.53;3085822;28;114833;-60
2021/01/08 04:03:23;;;;;;;;;;;;;;;19.83;35.70;101364.03;3098384;28;115844;-60
2021/01/08 04:04:54;;;;;;;;;;;;;;;19.81;36.17;101367.13;3093011;28;114817;-60
2021/01/08 04:06:25;;;;;;;;;;;;;;;19.78;36.11;101364.94;3096594;28;115776;-60
2021/01/08 04:07:56;;;;;;;;;;;;;;;19.77;36.06;101365.22;3092997;28;115110;-60
2021/01/08 04:09:27;;;;;;;;;;;;;;;19.74;35.95;101361.03;3094120;28;115906;-60
2021/01/08 04:10:58;;;;;;;;;;;;;;;19.74;35.95;101369.44;3090150;28;114854;-60
2021/01/08 04:12:30;;;;;;;;;;;;;;;19.74;35.85;101363.84;3099802;28;114708;-60
2021/01/08 04:14:01;;;;;;;;;;;;;;;19.73;36.02;101369.72;3105800;28;113869;-59
2021/01/08 04:15:32;;;;;;;;;;;;;;;19.70;36.14;101365.56;3097940;28;114621;-60
2021/01/08 04:17:03;;;;;;;;;;;;;;;19.69;36.05;101369.50;3098068;28;114274;-60
2021/01/08 04:18:34;;;;;;;;;;;;;;;19.68;36.15;101367.81;3108279;28;114408;-60
2021/01/08 04:20:06;;;;;;;;;;;;;;;19.67;36.32;101366.13;3095422;27;114794;-59
2021/01/08 04:21:37;;;;;;;;;;;;;;;19.66;36.13;101370.09;3084315;28;113786;-60
2021/01/08 04:23:08;;;;;;;;;;;;;;;19.66;36.05;101374.84;3091639;28;113963;-60
2021/01/08 04:24:39;;;;;;;;;;;;;;;19.62;35.97;101369.00;3097593;28;114235;-60
2021/01/08 04:26:10;;;;;;;;;;;;;;;19.61;36.20;101367.31;3087693;28;114354;-61
2021/01/08 04:27:42;;;;;;;;;;;;;;;19.61;36.08;101372.91;3091197;28;117684;-61
2021/01/08 04:29:13;;;;;;;;;;;;;;;19.59;35.97;101368.72;3088229;28;113873;-61
2021/01/08 04:30:45;;;;;;;;;;;;;;;19.57;36.16;101360.63;3083273;28;114092;-60
2021/01/08 04:32:17;;;;;;;;;;;;;;;19.57;36.27;101368.19;3092740;28;114054;-60
2021/01/08 04:33:48;;;;;;;;;;;;;;;19.54;36.26;101361.19;3094334;28;114044;-60
2021/01/08 04:35:19;;;;;;;;;;;;;;;19.53;36.39;101367.94;3099989;28;114118;-60
2021/01/08 04:36:50;;;;;;;;;;;;;;;19.53;36.09;101363.16;3092214;28;114619;-63
2021/01/08 04:38:22;;;;;;;;;;;;;;;19.50;36.24;101360.94;3091427;28;115800;-59
2021/01/08 04:39:53;;;;;;;;;;;;;;;19.48;36.41;101359.56;3092751;28;115389;-59
2021/01/08 04:41:24;;;;;;;;;;;;;;;19.48;36.31;101356.75;3091098;28;115100;-60
2021/01/08 04:42:55;;;;;;;;;;;;;;;19.47;36.38;101361.53;3088722;28;115056;-59
2021/01/08 04:44:27;;;;;;;;;;;;;;;19.46;36.18;101361.81;3094605;28;115194;-59
2021/01/08 04:46:20;;;;;;;;;;;;;;;19.45;36.26;101357.31;3084131;28;114189;-59
2021/01/08 04:47:53;;;;;;;;;;;;;;;19.44;36.12;101356.47;3099140;27;115517;-59
2021/01/08 04:49:26;;;;;;;;;;;;;;;19.45;36.36;101357.31;3088094;28;115546;-60
2021/01/08 04:50:58;;;;;;;;;;;;;;;19.47;36.30;101355.94;3084267;28;113999;-59
2021/01/08 04:52:30;;;;;;;;;;;;;;;19.55;36.38;101360.06;3098091;28;115021;-59
2021/01/08 04:54:01;;;;;;;;;;;;;;;19.58;36.14;101353.84;3085696;28;115632;-58
2021/01/08 04:55:33;;;;;;;;;;;;;;;19.63;36.42;101352.97;3095337;28;114352;-60
2021/01/08 04:57:06;;;;;;;;;;;;;;;19.64;36.53;101352.69;3095973;28;114582;-60
2021/01/08 04:58:37;;;;;;;;;;;;;;;19.67;36.53;101354.91;3088577;28;115185;-60
2021/01/08 05:00:09;;;;;;;;;;;;;;;19.71;36.48;101356.03;3091255;28;115491;-59
2021/01/08 05:01:41;;;;;;;;;;;;;;;19.75;36.31;101351.50;3094311;28;114659;-59
2021/01/08 05:03:12;;;;;;;;;;;;;;;19.78;36.67;101356.50;3088638;28;114701;-59
2021/01/08 05:04:44;;;;;;;;;;;;;;;19.82;36.95;101353.94;3096122;28;114659;-59
2021/01/08 05:06:15;;;;;;;;;;;;;;;19.85;37.18;101348.59;3091070;28;115856;-60
2021/01/08 05:07:46;;;;;;;;;;;;;;;19.89;37.08;101351.66;3093154;28;114812;-59
2021/01/08 05:09:18;;;;;;;;;;;;;;;19.94;36.99;101348.81;3085353;28;115884;-60
2021/01/08 05:10:49;;;;;;;;;;;;;;;19.98;36.94;101342.31;3086364;28;115937;-60
2021/01/08 05:12:36;;;;;;;;;;;;;;;20.03;37.57;101352.66;3095271;28;115938;-60
2021/01/08 05:14:08;;;;;;;;;;;;;;;20.08;37.24;101349.78;3103737;28;116107;-59
2021/01/08 05:15:42;;;;;;;;;;;;;;;20.12;37.17;101356.50;3096542;28;114516;-58
2021/01/08 05:17:28;;;;;;;;;;;;;;;20.15;37.15;101347.47;3099549;28;115829;-59
2021/01/08 05:19:00;;;;;;;;;;;;;;;20.21;36.75;101351.06;3113483;28;116492;-59
2021/01/08 05:20:32;;;;;;;;;;;;;;;20.25;36.74;101354.94;3087149;28;114208;-59
2021/01/08 05:22:04;;;;;;;;;;;;;;;20.28;36.59;101349.56;3087842;28;113872;-58
2021/01/08 05:23:35;;;;;;;;;;;;;;;20.33;36.69;101351.53;3095408;28;113990;-59
2021/01/08 05:25:10;;;;;;;;;;;;;;;20.36;36.57;101351.75;3090288;28;114261;-59
2021/01/08 05:26:41;;;;;;;;;;;;;;;20.41;36.32;101354.50;3088414;28;113777;-58
2021/01/08 05:28:16;;;;;;;;;;;;;;;20.45;36.37;101343.53;3093622;28;114088;-58
2021/01/08 05:29:47;;;;;;;;;;;;;;;20.49;36.63;101347.41;3097970;28;114569;-58
2021/01/08 05:31:19;;;;;;;;;;;;;;;20.53;36.46;101350.47;3088783;28;114179;-58
2021/01/08 05:32:57;;;;;;;;;;;;;;;20.56;36.63;101353.50;3088900;28;116936;-59
2021/01/08 05:34:29;;;;;;;;;;;;;;;20.61;36.55;101342.22;3087508;28;113860;-61
2021/01/08 05:36:01;;;;;;;;;;;;;;;20.64;36.46;101347.22;3091661;28;113917;-60
2021/01/08 05:37:32;;;;;;;;;;;;;;;20.68;36.31;101342.69;3087929;28;113954;-60
2021/01/08 05:39:04;;;;;;;;;;;;;;;20.72;36.53;101345.72;3086206;28;114019;-60
2021/01/08 05:40:39;;;;;;;;;;;;;;;20.75;36.02;101336.72;3096037;28;114077;-60
2021/01/08 05:42:11;;;;;;;;;;;;;;;20.78;35.92;101338.91;3089440;28;114634;-60
2021/01/08 05:43:43;;;;;;;;;;;;;;;20.82;35.66;101335.19;3102517;28;115408;-60
2021/01/08 05:45:14;;;;;;;;;;;;;;;20.84;35.59;101338.56;3096134;28;114241;-60
2021/01/08 05:46:47;;;;;;;;;;;;;;;20.89;35.69;101336.81;3092877;28;114207;-60
2021/01/08 05:48:18;;;;;;;;;;;;;;;20.92;35.36;101336.19;3097728;28;115164;-59
2021/01/08 05:49:55;;;;;;;;;;;;;;;20.96;35.43;101343.72;3098731;28;115279;-60
2021/01/08 05:51:29;;;;;;;;;;;;;;;20.99;35.36;101342.28;3095639;28;115134;-60
2021/01/08 05:53:04;;;;;;;;;;;;;;;21.02;35.20;101336.06;3088190;28;114560;-60
2021/01/08 05:54:35;;;;;;;;;;;;;;;21.06;35.37;101345.56;3098454;28;115231;-60
2021/01/08 05:56:12;;;;;;;;;;;;;;;21.09;35.04;101339.31;3108924;27;115235;-60
2021/01/08 05:57:43;;;;;;;;;;;;;;;21.11;35.19;101343.53;3093835;27;115827;-60
2021/01/08 05:59:15;;;;;;;;;;;;;;;21.14;35.24;101348.56;3094205;28;115249;-59
2021/01/08 06:00:56;;;;;;;;;;;;;;;21.18;35.30;101352.44;3092388;28;117684;-60
2021/01/08 06:02:28;;;;;;;;;;;;;;;21.20;34.74;101352.97;3101798;28;115228;-59
2021/01/08 06:04:01;;;;;;;;;;;;;;;21.23;34.99;101354.31;3091432;28;114965;-60
2021/01/08 06:05:34;;;;;;;;;;;;;;;21.26;34.57;101360.16;3089372;28;115158;-60
2021/01/08 06:07:14;;;;;;;;;;;;;;;21.29;35.02;101359.59;3097693;28;114834;-60
2021/01/08 06:08:53;;;;;;;;;;;;;;;21.30;34.52;101354.81;3093118;28;114569;-60
2021/01/08 06:10:24;;;;;;;;;;;;;;;21.31;34.18;101364.88;3086299;28;115727;-60
2021/01/08 06:11:58;;;;;;;;;;;;;;;21.33;33.85;101362.63;3090130;28;114785;-60
2021/01/08 06:13:33;;;;;;;;;;;;;;;21.39;34.33;101367.03;3095436;28;115114;-62
2021/01/08 06:15:06;;;;;;;;;;;;;;;21.40;34.20;101359.41;3085783;28;115935;-60
2021/01/08 06:16:38;;;;;;;;;;;;;;;21.41;34.00;101366.72;3087277;28;115282;-60
2021/01/08 06:18:10;;;;;;;;;;;;;;;21.43;33.94;101358.81;3094215;28;118298;-59
2021/01/08 06:19:41;;;;;;;;;;;;;;;21.45;33.85;101357.34;3099256;28;116352;-61
2021/01/08 06:21:13;;;;;;;;;;;;;;;21.48;33.82;101365.22;3090478;28;115667;-60
2021/01/08 06:22:45;;;;;;;;;;;;;;;21.51;34.17;101373.03;3087970;28;115966;-60
2021/01/08 06:24:25;;;;;;;;;;;;;;;21.53;34.33;101367.91;3086548;28;116025;-62
2021/01/08 06:25:58;;;;;;;;;;;;;;;21.55;34.42;101362.84;3088768;28;118165;-60
2021/01/08 06:27:32;;;;;;;;;;;;;;;21.58;33.95;101364.19;3087165;28;117064;-61
2021/01/08 06:29:10;;;;;;;;;;;;;;;21.61;34.27;101361.63;3096679;28;113895;-59
2021/01/08 06:30:42;;;;;;;;;;;;;;;21.63;34.20;101361.28;3087220;28;114242;-62
2021/01/08 06:32:16;;;;;;;;;;;;;;;21.65;34.08;101367.47;3098819;28;113868;-61
2021/01/08 06:33:55;;;;;;;;;;;;;;;21.68;34.14;101373.31;3090699;28;114073;-61
2021/01/08 06:35:29;;;;;;;;;;;;;;;21.70;33.95;101365.41;3092008;28;114445;-60
2021/01/08 06:37:00;;;;;;;;;;;;;;;21.72;33.85;101374.34;3086188;28;114191;-60
2021/01/08 06:38:36;;;;;;;;;;;;;;;21.74;33.90;101374.06;3094591;28;114606;-59
2021/01/08 06:40:09;;;;;;;;;;;;;;;21.78;33.84;101371.47;3097780;28;114599;-61
2021/01/08 06:41:40;;;;;;;;;;;;;;;21.79;34.16;101373.97;3091220;28;114564;-61
2021/01/08 06:43:17;;;;;;;;;;;;;;;21.81;33.60;101374.50;3092865;28;114218;-61
2021/01/08 06:44:49;;;;;;;;;;;;;;;21.84;34.10;101373.91;3101169;28;114249;-59
2021/01/08 06:46:25;;;;;;;;;;;;;;;21.86;34.07;101370.75;3085873;28;114122;-59
2021/01/08 06:48:01;;;;;;;;;;;;;;;21.89;33.93;101371.00;3091545;28;114262;-59
2021/01/08 06:49:36;;;;;;;;;;;;;;;21.92;33.85;101378.81;3098153;28;114047;-59
2021/01/08 06:51:11;;;;;;;;;;;;;;;21.94;33.83;101370.13;3097634;28;115256;-59
2021/01/08 06:52:43;;;;;;;;;;;;;;;21.95;33.59;101378.22;3099606;28;114295;-60
2021/01/08 06:54:14;;;;;;;;;;;;;;;21.97;33.74;101373.16;3087418;28;115718;-60
2021/01/08 06:55:46;;;;;;;;;;;;;;;22.00;33.46;101380.13;3096004;28;115464;-61
2021/01/08 06:57:21;;;;;;;;;;;;;;;22.01;33.51;101379.81;3098470;28;114234;-65
2021/01/08 06:58:54;;;;;;;;;;;;;;;22.03;33.56;101379.53;3097328;28;114111;-59
2021/01/08 07:00:28;;;;;;;;;;;;;;;22.04;33.63;101376.38;3098157;28;114333;-61
2021/01/08 07:02:08;;;;;;;;;;;;;;;22.06;34.33;101374.09;3097049;28;115757;-60
2021/01/08 07:03:40;;;;;;;;;;;;;;;22.08;33.85;101382.22;3096252;28;115009;-60
2021/01/08 07:05:17;;;;;;;;;;;;;;;22.09;33.40;101378.25;3097479;28;114478;-61
2021/01/08 07:06:48;;;;;;;;;;;;;;;22.11;33.22;101382.47;3094524;28;114352;-58
2021/01/08 07:08:20;;;;;;;;;;;;;;;22.13;33.44;101382.13;3086454;28;113855;-60
2021/01/08 07:09:52;;;;;;;;;;;;;;;22.14;33.39;101393.09;3089641;28;116082;-59
2021/01/08 07:11:26;;;;;;;;;;;;;;;22.16;33.09;101384.34;3088090;28;116072;-59
2021/01/08 07:12:58;;;;;;;;;;;;;;;22.17;33.02;101388.81;3094624;28;115536;-59
2021/01/08 07:14:29;;;;;;;;;;;;;;;22.20;33.30;101387.38;3090991;28;114429;-59
2021/01/08 07:16:00;;;;;;;;;;;;;;;22.22;32.97;101390.69;3085985;28;117158;-60
2021/01/08 07:17:33;;;;;;;;;;;;;;;22.24;33.06;101386.44;3086353;28;115965;-60
2021/01/08 07:19:08;;;;;;;;;;;;;;;22.28;33.17;101389.47;3087571;28;114609;-59
2021/01/08 07:20:50;;;;;;;;;;;;;;;22.31;33.58;101392.50;3089248;28;117618;-58
2021/01/08 07:22:42;;;;;;;;;;;;;;;22.31;33.45;101395.31;3092651;28;118153;-60
2021/01/08 07:24:13;;;;;;;;;;;;;;;22.32;33.26;101394.16;3095301;28;116057;-60
2021/01/08 07:25:45;;;;;;;;;;;;;;;22.34;33.17;101402.31;3096930;28;114230;-61
2021/01/08 07:27:26;;;;;;;;;;;;;;;22.34;33.01;101403.16;3096467;28;116733;-61
2021/01/08 07:28:57;;;;;;;;;;;;;;;22.36;33.38;101400.84;3088826;28;115011;-60
2021/01/08 07:30:28;;;;;;;;;;;;;;;22.38;33.06;101407.03;3096800;28;114714;-60
2021/01/08 07:32:04;;;;;;;;;;;;;;;22.39;33.06;101400.25;3098768;28;114826;-58
2021/01/08 07:33:43;;;;;;;;;;;;;;;22.41;33.25;101397.09;3093248;28;114133;-60
2021/01/08 07:35:14;;;;;;;;;;;;;;;22.43;33.17;101401.31;3094760;28;114740;-60
2021/01/08 07:36:53;;;;;;;;;;;;;;;22.45;33.27;101400.97;3091602;28;117704;-60
2021/01/08 07:38:33;;;;;;;;;;;;;;;22.47;33.15;101404.31;3091964;28;114335;-60
2021/01/08 07:40:05;;;;;;;;;;;;;;;22.49;33.23;101402.00;3094259;28;114967;-61
2021/01/08 07:41:38;;;;;;;;;;;;;;;22.49;33.26;101400.03;3096814;28;115937;-59
2021/01/08 07:43:11;;;;;;;;;;;;;;;22.51;33.12;101406.22;3097856;28;114761;-60
2021/01/08 07:44:46;;;;;;;;;;;;;;;22.53;33.27;101405.91;3094830;28;114031;-62
2021/01/08 07:46:25;;;;;;;;;;;;;;;22.55;33.27;101412.88;3096827;28;114266;-60
2021/01/08 07:47:56;;;;;;;;;;;;;;;22.57;33.29;101412.59;3094978;28;114187;-60
2021/01/08 07:49:28;;;;;;;;;;;;;;;22.59;33.39;101410.28;3095404;28;114640;-60
2021/01/08 07:51:01;;;;;;;;;;;;;;;22.60;33.51;101409.97;3091033;28;114104;-60